Time;durP1;ratioP1;P1;durP2;ratioP2;P2;SDS_P1;SDS_P2;PMS_P1;PMS_P2;Temp;Humidity;BMP_temperature;BMP_pressure;BME280_temperature;BME280_humidity;BME280_pressure;Samples;Min_cycle;Max_cycle;Signal;HPM_P1;HPM_P2
2023/01/23 00:01:13;;;;;;;78.50;62.83;;;2.20;99.90;;;;;;5031678;28;20258;-50
2023/01/23 00:03:41;;;;;;;650.53;204.33;;;2.20;99.90;;;;;;5031187;28;20310;-50
2023/01/23 00:06:12;;;;;;;1936.30;411.13;;;2.20;99.90;;;;;;5031164;28;20210;-50
2023/01/23 00:08:42;;;;;;;68.17;61.13;;;2.10;99.90;;;;;;5031326;28;20231;-51
2023/01/23 00:11:13;;;;;;;115.43;92.67;;;2.10;99.90;;;;;;5030848;28;20226;-50
2023/01/23 00:13:41;;;;;;;62.93;34.97;;;2.20;99.90;;;;;;5028020;28;20314;-50
2023/01/23 00:16:12;;;;;;;1999.90;509.97;;;2.20;99.90;;;;;;5030960;28;20214;-51
2023/01/23 00:18:40;;;;;;;80.90;50.63;;;2.20;99.90;;;;;;5030452;28;20217;-50
2023/01/23 00:21:10;;;;;;;128.73;65.93;;;2.20;99.90;;;;;;5031325;28;20234;-50
2023/01/23 00:23:42;;;;;;;394.80;131.90;;;2.20;99.90;;;;;;5030569;28;21047;-51
2023/01/23 00:26:15;;;;;;;61.30;51.93;;;2.10;99.90;;;;;;5031111;28;20295;-51
2023/01/23 00:28:44;;;;;;;63.37;51.47;;;2.10;99.90;;;;;;5031271;28;20601;-50
2023/01/23 00:31:14;;;;;;;83.20;75.17;;;2.20;99.90;;;;;;5025289;28;20249;-50
2023/01/23 00:33:43;;;;;;;269.13;108.10;;;2.20;99.90;;;;;;5030822;28;20229;-51
2023/01/23 00:36:13;;;;;;;93.10;82.97;;;2.20;99.90;;;;;;5017342;28;20304;-49
2023/01/23 00:38:41;;;;;;;66.10;59.63;;;2.20;99.90;;;;;;5025295;28;20332;-49
2023/01/23 00:41:09;;;;;;;548.17;129.07;;;2.20;99.90;;;;;;5026077;28;20230;-50
2023/01/23 00:43:38;;;;;;;1940.40;347.07;;;2.20;99.90;;;;;;5030536;28;20218;-51
2023/01/23 00:46:07;;;;;;;44.37;32.63;;;2.10;99.90;;;;;;5030657;28;20289;-50
2023/01/23 00:48:36;;;;;;;1022.93;224.87;;;2.10;99.90;;;;;;5030302;28;20210;-50
2023/01/23 00:51:04;;;;;;;64.70;56.23;;;2.10;99.90;;;;;;5026192;28;20334;-51
2023/01/23 00:53:32;;;;;;;242.07;134.37;;;2.00;99.90;;;;;;5029294;28;20223;-50
2023/01/23 00:56:00;;;;;;;110.83;79.57;;;2.00;99.90;;;;;;5019890;28;20211;-50
2023/01/23 00:58:28;;;;;;;123.37;104.80;;;2.00;99.90;;;;;;5028230;28;20280;-49
2023/01/23 01:00:58;;;;;;;567.27;124.27;;;2.00;99.90;;;;;;5030168;28;20272;-50
2023/01/23 01:03:26;;;;;;;503.07;158.53;;;2.00;99.90;;;;;;5029759;28;20214;-50
2023/01/23 01:05:54;;;;;;;361.97;116.93;;;2.00;99.90;;;;;;5030419;28;20207;-50
2023/01/23 01:08:22;;;;;;;78.13;52.77;;;2.00;99.90;;;;;;5029817;28;20238;-50
2023/01/23 01:10:50;;;;;;;461.67;124.53;;;2.00;99.90;;;;;;5029845;28;20308;-50
2023/01/23 01:13:20;;;;;;;906.67;230.43;;;2.00;99.90;;;;;;5029944;28;20270;-51
2023/01/23 01:15:49;;;;;;;580.90;172.13;;;2.10;99.90;;;;;;5028524;28;20688;-50
2023/01/23 01:18:19;;;;;;;53.37;45.70;;;2.00;99.90;;;;;;5022881;28;20668;-50
2023/01/23 01:20:48;;;;;;;162.67;104.30;;;2.00;99.90;;;;;;5029844;28;20233;-50
2023/01/23 01:23:16;;;;;;;104.23;93.07;;;2.00;99.90;;;;;;5029800;28;20275;-50
2023/01/23 01:25:45;;;;;;;136.70;70.90;;;2.00;99.90;;;;;;5029882;28;20294;-51
2023/01/23 01:28:13;;;;;;;617.17;138.37;;;2.10;99.90;;;;;;5029916;28;20580;-51
2023/01/23 01:30:41;;;;;;;709.37;197.90;;;2.00;99.90;;;;;;5029019;28;20262;-50
2023/01/23 01:33:09;;;;;;;1999.90;627.53;;;2.00;99.90;;;;;;5021998;28;20226;-50
2023/01/23 01:35:41;;;;;;;87.50;69.53;;;1.90;99.90;;;;;;5024991;28;20279;-51
2023/01/23 01:38:09;;;;;;;1018.97;224.47;;;1.90;99.90;;;;;;5023794;28;20271;-50
2023/01/23 01:40:37;;;;;;;1999.90;436.07;;;1.90;99.90;;;;;;5029149;28;20233;-50
2023/01/23 01:43:08;;;;;;;860.10;230.57;;;1.90;99.90;;;;;;5029246;28;20253;-51
2023/01/23 01:46:11;;;;;;;973.20;231.23;;;1.90;99.90;;;;;;5029505;28;20283;-51
2023/01/23 01:48:44;;;;;;;1870.73;416.40;;;1.90;99.90;;;;;;5016837;28;20210;-50
2023/01/23 01:51:22;;;;;;;306.93;96.77;;;2.00;99.90;;;;;;5029467;28;20283;-51
2023/01/23 01:53:55;;;;;;;72.90;65.53;;;1.90;99.90;;;;;;5029276;28;20236;-51
2023/01/23 01:56:25;;;;;;;108.67;97.27;;;1.90;99.90;;;;;;5029124;28;20726;-51
2023/01/23 01:58:54;;;;;;;242.10;121.27;;;1.90;99.90;;;;;;5028687;28;20214;-49
2023/01/23 02:01:22;;;;;;;46.07;32.27;;;2.00;99.90;;;;;;5029121;28;20733;-50
2023/01/23 02:03:51;;;;;;;211.50;121.87;;;2.00;99.90;;;;;;5028141;28;20246;-50
2023/01/23 02:06:21;;;;;;;885.20;185.63;;;2.00;99.90;;;;;;5029345;28;20263;-51
2023/01/23 02:08:55;;;;;;;683.37;161.83;;;2.00;99.90;;;;;;5028727;28;20213;-50
2023/01/23 02:11:23;;;;;;;182.43;75.10;;;1.90;99.90;;;;;;5029221;28;20272;-50
2023/01/23 02:13:54;;;;;;;53.33;47.83;;;1.90;99.90;;;;;;5028716;28;20293;-50
2023/01/23 02:16:26;;;;;;;124.53;93.90;;;1.90;99.90;;;;;;5020994;28;20346;-51
2023/01/23 02:18:58;;;;;;;66.87;61.13;;;2.00;99.90;;;;;;5028930;28;20219;-50
2023/01/23 02:21:28;;;;;;;437.87;181.67;;;2.00;99.90;;;;;;5028642;28;20716;-51
2023/01/23 02:24:11;;;;;;;107.63;54.00;;;2.00;99.90;;;;;;5029065;28;20290;-50
2023/01/23 02:26:43;;;;;;;504.43;156.23;;;2.00;99.90;;;;;;5029099;28;20233;-51
2023/01/23 02:29:11;;;;;;;242.83;114.10;;;2.00;99.90;;;;;;5027088;28;20239;-49
2023/01/23 02:31:41;;;;;;;59.63;53.00;;;2.00;99.90;;;;;;5012921;28;20310;-50
2023/01/23 02:34:11;;;;;;;52.07;43.40;;;2.00;99.90;;;;;;5026936;28;20226;-50
2023/01/23 02:36:42;;;;;;;96.20;86.67;;;2.00;99.90;;;;;;5028788;28;20228;-50
2023/01/23 02:39:12;;;;;;;85.93;77.30;;;2.00;99.90;;;;;;5028613;28;20237;-50
2023/01/23 02:41:44;;;;;;;218.60;133.70;;;2.00;99.90;;;;;;5031592;28;20234;-50
2023/01/23 02:44:16;;;;;;;83.03;74.33;;;2.00;99.90;;;;;;5032804;28;20608;-50
2023/01/23 02:46:44;;;;;;;364.40;144.37;;;2.10;99.90;;;;;;5032868;28;20241;-51
2023/01/23 02:49:12;;;;;;;95.23;85.40;;;2.00;99.90;;;;;;5032857;28;20264;-50
2023/01/23 02:51:40;;;;;;;437.67;167.93;;;2.00;99.90;;;;;;5031759;28;20337;-50
2023/01/23 02:54:08;;;;;;;158.83;92.33;;;2.00;99.90;;;;;;5030344;28;20283;-50
2023/01/23 02:56:37;;;;;;;75.53;68.80;;;2.00;99.90;;;;;;5032594;28;20261;-49
2023/01/23 03:01:52;;;;;;;1114.83;295.13;;;2.00;99.90;;;;;;5032202;28;20269;-50
2023/01/23 03:04:20;;;;;;;73.73;66.63;;;2.00;99.90;;;;;;5032370;28;20198;-50
2023/01/23 03:06:48;;;;;;;1999.90;739.73;;;2.00;99.90;;;;;;5032478;28;20698;-50
2023/01/23 03:09:17;;;;;;;1999.90;742.07;;;2.00;99.90;;;;;;5032230;28;20243;-51
2023/01/23 03:11:46;;;;;;;1999.90;632.47;;;1.90;99.90;;;;;;5031980;28;20777;-51
2023/01/23 03:14:18;;;;;;;1122.00;301.60;;;1.80;99.90;;;;;;5031836;28;20254;-51
2023/01/23 03:16:50;;;;;;;76.40;59.20;;;1.80;99.90;;;;;;5032473;28;20699;-50
2023/01/23 03:19:21;;;;;;;1331.13;349.27;;;1.80;99.90;;;;;;5032278;28;20260;-50
2023/01/23 03:21:50;;;;;;;1638.20;295.20;;;1.80;99.90;;;;;;5031958;28;20782;-50
2023/01/23 03:24:19;;;;;;;773.07;210.37;;;1.80;99.90;;;;;;5032290;28;20198;-50
2023/01/23 03:26:49;;;;;;;132.27;118.23;;;1.80;99.90;;;;;;5031717;28;20216;-51
2023/01/23 03:32:06;;;;;;;1177.23;319.23;;;1.80;99.90;;;;;;5019575;28;20202;-50
2023/01/23 03:34:35;;;;;;;1471.87;369.53;;;1.80;99.90;;;;;;5031818;28;20360;-50
2023/01/23 03:37:03;;;;;;;1507.93;387.77;;;1.80;99.90;;;;;;5032001;28;20920;-51
2023/01/23 03:42:16;;;;;;;1999.90;819.30;;;1.90;99.90;;;;;;5031574;28;20230;-50
2023/01/23 03:44:46;;;;;;;1999.90;999.90;;;1.90;99.90;;;;;;5030847;28;20822;-49
2023/01/23 03:47:14;;;;;;;1999.90;423.87;;;2.00;99.90;;;;;;5025457;28;20245;-51
2023/01/23 03:49:42;;;;;;;1999.90;520.30;;;1.90;99.90;;;;;;5031405;28;20295;-51
2023/01/23 03:52:10;;;;;;;1985.63;412.93;;;2.00;99.90;;;;;;5030476;28;20234;-51
2023/01/23 03:54:38;;;;;;;1999.90;767.87;;;1.90;99.90;;;;;;5031104;28;20318;-51
2023/01/23 03:57:07;;;;;;;161.67;80.03;;;2.00;99.90;;;;;;5031493;28;20273;-50
2023/01/23 03:59:36;;;;;;;712.00;237.03;;;2.00;99.90;;;;;;5030638;28;20260;-50
2023/01/23 04:02:05;;;;;;;1999.90;519.33;;;1.90;99.90;;;;;;5030869;28;20637;-49
2023/01/23 04:04:34;;;;;;;1999.90;487.63;;;1.90;99.90;;;;;;5031149;28;20196;-50
2023/01/23 04:07:03;;;;;;;1323.07;267.67;;;1.90;99.90;;;;;;5028928;28;20264;-50
2023/01/23 04:09:31;;;;;;;1999.90;999.90;;;1.90;99.90;;;;;;5031383;28;20301;-50
2023/01/23 04:12:00;;;;;;;1999.90;570.20;;;2.10;99.90;;;;;;5031161;28;20262;-49
2023/01/23 04:14:34;;;;;;;313.40;118.53;;;2.00;99.90;;;;;;5030712;28;20660;-51
2023/01/23 04:17:02;;;;;;;1940.27;523.43;;;2.00;99.90;;;;;;5030970;28;20207;-50
2023/01/23 04:19:31;;;;;;;1999.90;999.90;;;2.00;99.90;;;;;;5031213;28;20251;-50
2023/01/23 04:22:00;;;;;;;561.97;164.03;;;2.10;99.90;;;;;;5030579;28;20288;-50
2023/01/23 04:24:28;;;;;;;1999.90;845.40;;;1.90;99.90;;;;;;5031051;28;20198;-49
2023/01/23 04:26:56;;;;;;;1941.03;550.77;;;2.00;99.90;;;;;;5030951;28;20234;-50
2023/01/23 04:29:24;;;;;;;1999.90;957.80;;;1.90;99.90;;;;;;5030834;28;20769;-50
2023/01/23 04:31:52;;;;;;;1999.90;517.03;;;2.00;99.90;;;;;;5029530;28;20678;-49
2023/01/23 04:34:20;;;;;;;1999.90;575.20;;;1.90;99.90;;;;;;5026109;28;20287;-50
2023/01/23 04:36:49;;;;;;;295.00;109.30;;;1.90;99.90;;;;;;5030341;28;20230;-50
2023/01/23 04:39:17;;;;;;;1195.63;327.70;;;1.90;99.90;;;;;;5031089;28;20234;-50
2023/01/23 04:41:45;;;;;;;1999.90;612.50;;;1.90;99.90;;;;;;5018988;28;20231;-49
2023/01/23 04:44:23;;;;;;;1999.90;763.90;;;1.90;99.90;;;;;;5030992;28;20252;-50
2023/01/23 04:46:53;;;;;;;1999.90;700.23;;;2.00;99.90;;;;;;5030910;28;20210;-53
2023/01/23 04:49:21;;;;;;;447.27;242.93;;;2.00;99.90;;;;;;5030440;28;20212;-50
2023/01/23 04:51:51;;;;;;;1999.90;766.20;;;2.00;99.90;;;;;;5042808;28;20260;-49
2023/01/23 04:54:21;;;;;;;1999.90;999.90;;;2.10;99.90;;;;;;5028988;28;20209;-50
2023/01/23 04:56:49;;;;;;;1999.90;561.87;;;2.10;99.90;;;;;;5037005;28;20289;-49
2023/01/23 04:59:17;;;;;;;1978.00;601.43;;;2.00;99.90;;;;;;5043700;28;20209;-50
2023/01/23 05:01:45;;;;;;;1999.90;997.97;;;1.90;99.90;;;;;;5047902;28;20256;-50
2023/01/23 05:04:13;;;;;;;1999.90;474.37;;;2.00;99.90;;;;;;5042557;28;20291;-50
2023/01/23 05:06:41;;;;;;;632.33;233.43;;;2.00;99.90;;;;;;5030352;28;20204;-50
2023/01/23 05:09:12;;;;;;;382.47;191.20;;;1.90;99.90;;;;;;5032086;28;20210;-50
2023/01/23 05:11:40;;;;;;;1628.70;343.97;;;1.90;99.90;;;;;;5029971;28;20230;-51
2023/01/23 05:14:08;;;;;;;168.33;116.53;;;1.90;99.90;;;;;;5029409;28;20785;-51
2023/01/23 05:16:36;;;;;;;1999.90;727.93;;;1.90;99.90;;;;;;5037462;28;20312;-50
2023/01/23 05:19:04;;;;;;;1004.63;302.00;;;2.00;99.90;;;;;;5040588;28;20221;-50
2023/01/23 05:21:32;;;;;;;1899.63;421.53;;;1.90;99.90;;;;;;5047217;28;20249;-51
2023/01/23 05:24:00;;;;;;;1071.20;328.53;;;1.90;99.90;;;;;;5029416;28;20242;-51
2023/01/23 05:26:30;;;;;;;1999.90;750.73;;;1.90;99.90;;;;;;5016671;28;20206;-50
2023/01/23 05:28:58;;;;;;;779.70;228.40;;;2.00;99.90;;;;;;5046764;28;20210;-51
2023/01/23 05:31:26;;;;;;;1866.13;408.07;;;1.90;99.90;;;;;;5029371;28;20249;-50
2023/01/23 05:33:54;;;;;;;1999.90;538.70;;;1.90;99.90;;;;;;5046712;28;20233;-51
2023/01/23 05:36:22;;;;;;;1999.90;538.33;;;1.90;99.90;;;;;;5031547;28;20288;-51
2023/01/23 05:38:50;;;;;;;1363.10;331.40;;;1.80;99.90;;;;;;5013452;28;20242;-51
2023/01/23 05:41:18;;;;;;;1999.90;583.27;;;1.70;99.90;;;;;;5022164;28;20244;-50
2023/01/23 05:43:49;;;;;;;1999.90;465.47;;;1.80;99.90;;;;;;5027769;28;20319;-49
2023/01/23 05:46:17;;;;;;;1971.73;445.30;;;1.70;99.90;;;;;;5026074;28;20563;-51
2023/01/23 05:48:48;;;;;;;1102.20;404.03;;;1.70;99.90;;;;;;5029692;28;20205;-50
2023/01/23 05:51:17;;;;;;;1999.90;778.13;;;1.70;99.90;;;;;;5044334;28;20316;-51
2023/01/23 05:53:45;;;;;;;1999.90;999.90;;;1.60;99.90;;;;;;5036753;28;20730;-50
2023/01/23 05:56:14;;;;;;;1999.90;633.63;;;1.70;99.90;;;;;;5025611;28;20314;-51
2023/01/23 05:58:42;;;;;;;703.20;281.30;;;1.70;99.90;;;;;;5025264;28;20225;-49
2023/01/23 06:01:11;;;;;;;264.17;167.03;;;1.60;99.90;;;;;;5027361;28;20302;-50
2023/01/23 06:03:39;;;;;;;1549.70;418.70;;;1.70;99.90;;;;;;5027847;28;20261;-50
2023/01/23 06:06:07;;;;;;;1999.90;736.80;;;1.70;99.90;;;;;;5025578;28;20225;-51
2023/01/23 06:08:35;;;;;;;88.70;80.90;;;1.60;99.90;;;;;;5023437;28;20207;-50
2023/01/23 06:11:04;;;;;;;113.03;79.07;;;1.70;99.90;;;;;;5029003;28;20258;-50
2023/01/23 06:13:32;;;;;;;125.23;113.87;;;1.70;99.90;;;;;;5036685;28;20202;-50
2023/01/23 06:16:00;;;;;;;105.83;91.10;;;1.80;99.90;;;;;;5029151;28;20222;-49
2023/01/23 06:18:29;;;;;;;392.70;171.73;;;1.80;99.90;;;;;;5021218;28;20213;-50
2023/01/23 06:20:58;;;;;;;1540.27;383.10;;;1.90;99.90;;;;;;5027592;28;20234;-50
2023/01/23 06:23:27;;;;;;;336.10;123.70;;;1.80;99.90;;;;;;5028691;28;20260;-50
2023/01/23 06:25:58;;;;;;;111.80;82.13;;;1.90;99.90;;;;;;5018834;28;20235;-50
2023/01/23 06:28:26;;;;;;;75.07;53.07;;;1.90;99.90;;;;;;5028888;28;20241;-50
2023/01/23 06:30:54;;;;;;;122.23;110.27;;;1.90;99.90;;;;;;5016339;28;20277;-50
2023/01/23 06:33:23;;;;;;;1999.90;501.47;;;2.00;99.90;;;;;;5024217;28;20672;-50
2023/01/23 06:35:57;;;;;;;782.67;319.03;;;1.90;99.90;;;;;;5022452;28;20262;-49
2023/01/23 06:38:25;;;;;;;175.33;107.83;;;1.90;99.90;;;;;;5018940;28;20710;-49
2023/01/23 06:40:53;;;;;;;1452.47;325.93;;;1.90;99.90;;;;;;5033621;28;20316;-50
2023/01/23 06:43:22;;;;;;;345.03;145.47;;;1.90;99.90;;;;;;5030833;28;20233;-49
2023/01/23 06:45:50;;;;;;;425.37;144.90;;;2.00;99.90;;;;;;5023531;28;20239;-51
2023/01/23 06:48:18;;;;;;;1999.90;476.50;;;2.00;99.90;;;;;;5027828;28;20632;-50
2023/01/23 06:50:46;;;;;;;1048.47;326.43;;;2.00;99.90;;;;;;5030872;28;20653;-50
2023/01/23 06:53:17;;;;;;;132.87;69.07;;;2.00;99.90;;;;;;5043409;28;20812;-49
2023/01/23 06:55:45;;;;;;;85.20;73.30;;;2.00;99.90;;;;;;5038104;28;20330;-50
2023/01/23 06:58:13;;;;;;;1999.90;931.50;;;2.00;99.90;;;;;;5047633;28;20233;-51
2023/01/23 07:00:43;;;;;;;211.43;128.87;;;2.20;99.90;;;;;;5039775;28;20262;-50
2023/01/23 07:03:11;;;;;;;1999.90;606.10;;;2.10;99.90;;;;;;5038305;28;20202;-50
2023/01/23 07:05:42;;;;;;;1414.07;462.63;;;2.20;99.90;;;;;;5034561;28;20199;-50
2023/01/23 07:08:10;;;;;;;227.80;153.10;;;2.10;99.90;;;;;;5040581;28;20199;-50
2023/01/23 07:10:40;;;;;;;339.77;120.50;;;2.10;99.90;;;;;;5039110;28;20713;-50
2023/01/23 07:13:09;;;;;;;406.87;146.53;;;2.20;99.90;;;;;;5047282;28;20256;-50
2023/01/23 07:15:38;;;;;;;813.30;342.47;;;2.20;99.90;;;;;;5039326;28;20262;-50
2023/01/23 07:18:09;;;;;;;1999.90;499.87;;;2.00;99.90;;;;;;5034523;28;20748;-49
2023/01/23 07:20:37;;;;;;;197.90;119.67;;;2.10;99.90;;;;;;5033952;28;20226;-50
2023/01/23 07:23:05;;;;;;;114.50;102.27;;;2.10;99.90;;;;;;5044309;28;20213;-50
2023/01/23 07:25:33;;;;;;;89.10;59.07;;;2.10;99.90;;;;;;5022525;28;20208;-51
2023/01/23 07:28:02;;;;;;;423.53;160.17;;;2.20;99.90;;;;;;5037711;28;20202;-50
2023/01/23 07:30:30;;;;;;;1116.33;368.27;;;2.10;99.90;;;;;;5045385;28;20221;-51
2023/01/23 07:32:59;;;;;;;89.87;70.90;;;2.20;99.90;;;;;;5046593;28;20715;-50
2023/01/23 07:35:27;;;;;;;1480.27;368.50;;;2.20;99.90;;;;;;5045831;28;20559;-50
2023/01/23 07:37:55;;;;;;;1999.90;581.73;;;2.20;99.90;;;;;;5044007;28;20234;-50
2023/01/23 07:40:24;;;;;;;1436.43;350.77;;;2.20;99.90;;;;;;5046467;28;20258;-50
2023/01/23 07:42:52;;;;;;;70.10;58.43;;;2.20;99.90;;;;;;5044025;28;20202;-50
2023/01/23 07:45:21;;;;;;;785.77;252.10;;;2.20;99.90;;;;;;5046958;28;20206;-50
2023/01/23 07:47:49;;;;;;;107.97;88.73;;;2.20;99.90;;;;;;5043060;28;20264;-50
2023/01/23 07:50:18;;;;;;;1118.63;286.63;;;2.20;99.90;;;;;;5046695;28;20265;-49
2023/01/23 07:52:46;;;;;;;667.90;194.67;;;2.20;99.90;;;;;;5031112;28;20199;-50
2023/01/23 07:55:14;;;;;;;1999.90;538.80;;;2.20;99.90;;;;;;5030772;28;20268;-51
2023/01/23 07:57:42;;;;;;;80.67;60.03;;;2.30;99.90;;;;;;5047193;28;20225;-50
2023/01/23 08:00:11;;;;;;;161.50;92.23;;;2.30;99.90;;;;;;5050332;28;20262;-50
2023/01/23 08:02:41;;;;;;;821.67;259.93;;;2.30;99.90;;;;;;5047134;28;20205;-50
2023/01/23 08:05:09;;;;;;;1999.90;628.67;;;2.40;99.90;;;;;;5044914;28;20235;-51
2023/01/23 08:07:37;;;;;;;400.77;127.33;;;2.40;99.90;;;;;;5025017;28;20286;-51
2023/01/23 08:10:06;;;;;;;444.97;176.87;;;2.40;99.90;;;;;;5050014;28;20276;-50
2023/01/23 08:12:34;;;;;;;1999.90;540.90;;;2.50;99.90;;;;;;5045658;28;20664;-51
2023/01/23 08:15:02;;;;;;;1999.90;952.43;;;2.40;99.90;;;;;;5050409;28;20215;-51
2023/01/23 08:17:30;;;;;;;727.70;247.27;;;2.40;99.90;;;;;;5039125;28;20309;-50
2023/01/23 08:20:00;;;;;;;1999.90;903.77;;;2.40;99.90;;;;;;5031024;28;20267;-49
2023/01/23 08:22:28;;;;;;;1742.23;471.40;;;2.50;99.90;;;;;;5034180;28;20256;-49
2023/01/23 08:24:56;;;;;;;1999.90;633.80;;;2.30;99.90;;;;;;5050448;28;20210;-50
2023/01/23 08:27:24;;;;;;;272.80;132.23;;;2.40;99.90;;;;;;5031182;28;20207;-50
2023/01/23 08:29:52;;;;;;;942.47;257.53;;;2.30;99.90;;;;;;5050265;28;20239;-50
2023/01/23 08:32:21;;;;;;;1999.90;514.63;;;2.30;99.90;;;;;;5044215;28;20249;-51
2023/01/23 08:34:49;;;;;;;1999.90;478.93;;;2.30;99.90;;;;;;5035871;28;20257;-50
2023/01/23 08:37:18;;;;;;;1999.90;666.50;;;2.40;99.90;;;;;;5043921;28;20257;-51
2023/01/23 08:39:46;;;;;;;62.70;56.87;;;2.40;99.90;;;;;;5034736;28;20244;-51
2023/01/23 08:42:14;;;;;;;1999.90;365.37;;;2.40;99.90;;;;;;5044657;28;20252;-51
2023/01/23 08:44:42;;;;;;;286.80;139.70;;;2.40;99.90;;;;;;5032763;28;20260;-51
2023/01/23 08:47:10;;;;;;;998.33;201.97;;;2.40;99.90;;;;;;5036214;28;20281;-50
2023/01/23 08:49:38;;;;;;;317.83;114.60;;;2.40;99.90;;;;;;5039032;28;20252;-51
2023/01/23 08:52:06;;;;;;;1999.90;914.73;;;2.50;99.90;;;;;;5042181;28;20971;-51
2023/01/23 08:54:36;;;;;;;1999.90;611.60;;;2.60;99.90;;;;;;5039566;28;20261;-50
2023/01/23 08:57:04;;;;;;;1999.90;732.63;;;2.60;99.90;;;;;;5025416;28;20920;-51
2023/01/23 08:59:32;;;;;;;1931.83;577.73;;;2.50;99.90;;;;;;5029378;28;20936;-49
2023/01/23 09:02:00;;;;;;;1204.77;342.23;;;2.60;99.90;;;;;;5029576;28;20261;-50
2023/01/23 09:04:28;;;;;;;1999.90;999.90;;;2.60;99.90;;;;;;5033429;28;20237;-50
2023/01/23 09:06:56;;;;;;;1703.47;308.23;;;2.60;99.90;;;;;;5025334;28;20290;-50
2023/01/23 09:09:24;;;;;;;56.73;50.67;;;2.50;99.90;;;;;;5037592;28;20253;-50
2023/01/23 09:11:55;;;;;;;1999.90;893.90;;;2.50;99.90;;;;;;5027529;28;20226;-50
2023/01/23 09:14:23;;;;;;;1999.90;724.30;;;2.70;99.90;;;;;;5029788;28;20721;-50
2023/01/23 09:16:52;;;;;;;712.73;272.53;;;2.80;99.90;;;;;;5028601;28;20324;-49
2023/01/23 09:19:20;;;;;;;1415.10;404.43;;;2.80;99.90;;;;;;5029998;28;20209;-51
2023/01/23 09:21:48;;;;;;;152.50;114.00;;;2.80;99.90;;;;;;5028557;28;20241;-51
2023/01/23 09:24:17;;;;;;;1565.27;407.70;;;2.90;99.90;;;;;;5029504;28;20667;-51
2023/01/23 09:26:45;;;;;;;399.50;146.13;;;3.00;99.90;;;;;;5029139;28;20242;-50
2023/01/23 09:29:15;;;;;;;63.37;53.07;;;3.00;99.90;;;;;;5024216;28;20206;-52
2023/01/23 09:31:43;;;;;;;1087.83;315.83;;;3.10;99.90;;;;;;5026071;28;20748;-51
2023/01/23 09:34:11;;;;;;;231.63;112.43;;;3.10;99.90;;;;;;5029860;28;20209;-50
2023/01/23 09:36:39;;;;;;;1999.90;638.47;;;3.10;99.90;;;;;;5027009;28;20229;-52
2023/01/23 09:39:11;;;;;;;120.63;108.80;;;3.10;99.90;;;;;;5027479;28;20207;-51
2023/01/23 09:41:40;;;;;;;1999.90;999.90;;;3.10;99.90;;;;;;5028988;28;20234;-51
2023/01/23 09:44:14;;;;;;;1999.90;688.93;;;3.20;99.90;;;;;;5029192;28;20210;-51
2023/01/23 09:46:49;;;;;;;103.57;81.27;;;3.30;99.90;;;;;;5027986;28;20212;-51
2023/01/23 09:49:23;;;;;;;520.23;169.47;;;3.20;99.90;;;;;;5029462;28;20215;-50
2023/01/23 09:51:57;;;;;;;1999.90;612.73;;;3.30;99.90;;;;;;5027688;28;20226;-51
2023/01/23 09:54:42;;;;;;;1344.23;293.73;;;3.50;99.90;;;;;;5035400;28;20247;-51
2023/01/23 09:57:15;;;;;;;1999.90;896.53;;;3.60;99.90;;;;;;5031589;28;20304;-51
2023/01/23 09:59:49;;;;;;;1999.90;999.90;;;3.60;99.90;;;;;;5040747;28;20297;-50
2023/01/23 10:02:29;;;;;;;1999.90;660.33;;;3.80;99.90;;;;;;5038878;28;20675;-50
2023/01/23 10:05:01;;;;;;;1999.90;641.20;;;3.70;99.90;;;;;;5036013;28;20306;-51
2023/01/23 10:07:53;;;;;;;1999.90;728.03;;;3.70;99.90;;;;;;5031712;28;20200;-51
2023/01/23 10:10:35;;;;;;;1999.90;755.57;;;3.60;99.90;;;;;;5038225;28;20809;-51
2023/01/23 10:13:13;;;;;;;1999.90;836.27;;;3.70;99.90;;;;;;5033253;28;20253;-51
2023/01/23 10:16:04;;;;;;;1999.90;999.90;;;3.90;99.90;;;;;;5020553;28;20206;-51
2023/01/23 10:18:39;;;;;;;270.20;108.87;;;3.90;99.90;;;;;;5027846;28;20663;-49
2023/01/23 10:21:18;;;;;;;1999.90;685.70;;;3.80;99.90;;;;;;5028745;28;20223;-50
2023/01/23 10:23:57;;;;;;;1470.53;377.27;;;3.90;99.90;;;;;;5017165;28;20246;-50
2023/01/23 10:26:29;;;;;;;1999.90;664.80;;;3.80;99.90;;;;;;5019092;28;20254;-51
2023/01/23 10:29:26;;;;;;;1999.90;711.27;;;3.80;99.90;;;;;;5026291;28;20206;-50
2023/01/23 10:31:57;;;;;;;1943.40;508.27;;;3.70;99.90;;;;;;5027617;28;20271;-50
2023/01/23 10:34:34;;;;;;;843.53;285.00;;;3.70;99.90;;;;;;5029975;28;20211;-51
2023/01/23 10:37:18;;;;;;;1999.90;818.10;;;3.70;99.90;;;;;;5026962;28;20212;-51
2023/01/23 10:39:51;;;;;;;1999.90;688.23;;;3.80;99.90;;;;;;5027133;28;20207;-50
2023/01/23 10:42:22;;;;;;;1999.90;691.90;;;3.90;99.90;;;;;;5027424;28;20245;-51
2023/01/23 10:44:50;;;;;;;1999.90;679.90;;;3.90;99.90;;;;;;5027201;28;20209;-50
2023/01/23 10:47:25;;;;;;;1108.47;247.87;;;3.90;99.90;;;;;;5027129;28;20748;-51
2023/01/23 10:50:00;;;;;;;321.20;131.23;;;3.90;99.90;;;;;;5027842;28;20350;-51
2023/01/23 10:52:32;;;;;;;1646.37;432.57;;;3.90;99.90;;;;;;5027255;28;20239;-51
2023/01/23 10:55:01;;;;;;;1446.70;350.90;;;4.10;99.90;;;;;;5034576;28;20241;-51
2023/01/23 10:57:33;;;;;;;1999.90;847.93;;;4.10;99.90;;;;;;5034670;28;20256;-50
2023/01/23 11:00:07;;;;;;;1491.10;332.17;;;3.90;99.90;;;;;;5041672;28;20286;-52
2023/01/23 11:02:36;;;;;;;1275.93;341.47;;;3.90;99.90;;;;;;5025433;28;20258;-51
2023/01/23 11:05:37;;;;;;;1777.97;441.10;;;4.00;99.90;;;;;;5030730;28;20213;-51
2023/01/23 11:08:24;;;;;;;83.47;75.37;;;4.00;99.90;;;;;;5029706;28;20228;-51
2023/01/23 11:10:52;;;;;;;1999.90;998.37;;;4.10;99.90;;;;;;5028798;28;20315;-51
2023/01/23 11:13:27;;;;;;;1977.10;470.90;;;4.30;99.90;;;;;;5029664;28;20636;-51
2023/01/23 11:15:55;;;;;;;1999.90;679.23;;;4.20;99.90;;;;;;5040304;28;20295;-51
2023/01/23 11:18:32;;;;;;;1999.90;624.50;;;4.10;99.90;;;;;;5021035;28;20239;-52
2023/01/23 11:21:02;;;;;;;1949.63;589.97;;;4.00;99.90;;;;;;5024353;28;20263;-52
2023/01/23 11:23:31;;;;;;;104.67;82.20;;;4.10;99.90;;;;;;5034766;28;20889;-52
2023/01/23 11:25:59;;;;;;;1981.83;432.13;;;4.10;99.90;;;;;;5031880;28;20206;-51
2023/01/23 11:28:29;;;;;;;130.40;116.13;;;4.10;99.90;;;;;;5034795;28;20263;-52
2023/01/23 11:31:05;;;;;;;207.47;143.17;;;4.20;99.90;;;;;;5041203;28;20232;-52
2023/01/23 11:33:46;;;;;;;230.37;163.37;;;4.20;99.90;;;;;;5042153;28;20812;-52
2023/01/23 11:36:40;;;;;;;1015.53;270.00;;;4.30;99.90;;;;;;5046107;28;20203;-50
2023/01/23 11:39:18;;;;;;;490.17;213.03;;;4.30;99.90;;;;;;5019023;28;20227;-51
2023/01/23 11:41:47;;;;;;;74.00;67.43;;;4.30;99.90;;;;;;5026511;28;20669;-50
2023/01/23 11:44:17;;;;;;;499.27;150.50;;;4.40;99.90;;;;;;5032813;28;20566;-50
2023/01/23 11:47:16;;;;;;;1064.23;317.57;;;4.40;99.90;;;;;;5045093;28;20206;-51
2023/01/23 11:50:11;;;;;;;1963.23;557.67;;;4.30;99.90;;;;;;5045252;28;20279;-51
2023/01/23 11:52:55;;;;;;;720.30;297.63;;;4.30;99.90;;;;;;5046877;28;20232;-52
2023/01/23 11:55:41;;;;;;;1999.90;896.00;;;4.20;99.90;;;;;;5035131;28;20876;-51
2023/01/23 11:58:20;;;;;;;288.57;129.93;;;4.30;99.90;;;;;;5030503;28;20241;-51
2023/01/23 12:00:54;;;;;;;639.57;213.93;;;4.10;99.90;;;;;;5025162;28;20230;-51
2023/01/23 12:03:52;;;;;;;1840.00;517.57;;;4.00;99.90;;;;;;5024156;28;20612;-51
2023/01/23 12:06:32;;;;;;;205.70;104.57;;;4.10;99.90;;;;;;5029869;28;20210;-51
2023/01/23 12:09:11;;;;;;;1999.90;523.63;;;4.00;99.90;;;;;;5031073;28;20301;-51
2023/01/23 12:11:48;;;;;;;1999.90;628.20;;;4.10;99.90;;;;;;5029164;28;20230;-51
2023/01/23 12:14:25;;;;;;;289.93;178.27;;;4.20;99.90;;;;;;5030269;28;20202;-51
2023/01/23 12:17:01;;;;;;;924.93;200.00;;;4.20;99.90;;;;;;5030178;28;20616;-52
2023/01/23 12:19:51;;;;;;;642.17;208.30;;;4.20;99.90;;;;;;5044693;28;20241;-52
2023/01/23 12:22:25;;;;;;;710.97;267.27;;;4.20;99.90;;;;;;5030669;28;20213;-51
2023/01/23 12:25:10;;;;;;;80.43;68.10;;;4.30;99.90;;;;;;5027558;28;20206;-50
2023/01/23 12:27:42;;;;;;;258.03;159.87;;;4.30;99.90;;;;;;5024799;28;20283;-51
2023/01/23 12:30:30;;;;;;;305.70;150.10;;;4.30;99.90;;;;;;5029416;28;20228;-51
2023/01/23 12:33:13;;;;;;;1999.90;693.10;;;4.30;99.90;;;;;;5030135;28;20237;-51
2023/01/23 12:35:51;;;;;;;1969.40;478.67;;;4.20;99.90;;;;;;5023167;28;20221;-51
2023/01/23 12:38:26;;;;;;;788.90;302.13;;;4.20;99.90;;;;;;5028720;28;20236;-52
2023/01/23 12:41:07;;;;;;;1927.57;462.93;;;4.20;99.90;;;;;;5029295;28;20226;-52
2023/01/23 12:43:41;;;;;;;1999.90;585.93;;;4.30;99.90;;;;;;5030380;28;20280;-51